Time;durP1;ratioP1;P1;durP2;ratioP2;P2;SDS_P1;SDS_P2;PMS_P1;PMS_P2;Temp;Humidity;BMP_temperature;BMP_pressure;BME280_temperature;BME280_humidity;BME280_pressure;Samples;Min_cycle;Max_cycle;Signal;HPM_P1;HPM_P2
2024/02/25 00:00:08;;;;;;;1.38;1.10;;;4.90;99.90;;;;;;5110607;28;20015;-64
2024/02/25 00:02:34;;;;;;;6.07;1.27;;;4.90;99.90;;;;;;5110131;28;20040;-64
2024/02/25 00:05:00;;;;;;;3.33;1.00;;;4.80;99.90;;;;;;5109664;28;20048;-64
2024/02/25 00:07:26;;;;;;;1.63;0.90;;;4.80;99.90;;;;;;5110500;28;20529;-64
2024/02/25 00:09:51;;;;;;;2.72;1.05;;;4.80;99.90;;;;;;5110023;28;20042;-64
2024/02/25 00:12:17;;;;;;;1.33;0.93;;;4.80;99.90;;;;;;5109932;27;20468;-65
2024/02/25 00:14:42;;;;;;;1.95;1.00;;;4.80;99.90;;;;;;5109932;28;20027;-64
2024/02/25 00:17:08;;;;;;;1.63;1.00;;;4.70;99.90;;;;;;5109983;28;20023;-64
2024/02/25 00:19:33;;;;;;;5.57;1.38;;;4.70;99.90;;;;;;5109901;28;20054;-64
2024/02/25 00:21:59;;;;;;;1.17;1.00;;;4.70;99.90;;;;;;5109321;28;20027;-64
2024/02/25 00:24:24;;;;;;;2.95;1.20;;;4.70;99.90;;;;;;5109978;28;20020;-64
2024/02/25 00:26:50;;;;;;;2.65;1.10;;;4.70;99.90;;;;;;5109659;28;20032;-64
2024/02/25 00:29:16;;;;;;;1.48;0.95;;;4.70;99.90;;;;;;5110079;28;20112;-64
2024/02/25 00:31:42;;;;;;;1.02;0.93;;;4.70;99.90;;;;;;5108192;28;20111;-64
2024/02/25 00:34:08;;;;;;;1.13;0.90;;;4.60;99.90;;;;;;5109623;28;20020;-64
2024/02/25 00:36:33;;;;;;;2.53;1.27;;;4.60;99.90;;;;;;5108006;28;20039;-64
2024/02/25 00:39:01;;;;;;;3.60;1.38;;;4.60;99.90;;;;;;5109662;28;20080;-64
2024/02/25 00:41:26;;;;;;;5.07;1.00;;;4.60;99.90;;;;;;5109495;28;20033;-64
2024/02/25 00:43:52;;;;;;;3.25;1.27;;;4.60;99.90;;;;;;5107860;28;20019;-64
2024/02/25 00:46:17;;;;;;;2.72;1.15;;;4.50;99.90;;;;;;5107771;28;20061;-64
2024/02/25 00:48:43;;;;;;;3.90;0.98;;;4.50;99.90;;;;;;5109126;28;20085;-64
2024/02/25 00:51:09;;;;;;;4.60;1.40;;;4.50;99.90;;;;;;5109156;28;20030;-64
2024/02/25 00:53:35;;;;;;;2.25;1.30;;;4.50;99.90;;;;;;5109274;28;20020;-64
2024/02/25 00:56:02;;;;;;;2.80;1.02;;;4.50;99.90;;;;;;5108771;28;20203;-64
2024/02/25 00:58:28;;;;;;;1.25;0.90;;;4.50;99.90;;;;;;5109473;28;20103;-65
2024/02/25 01:00:53;;;;;;;5.55;1.10;;;4.50;99.90;;;;;;5108129;28;20127;-65
2024/02/25 01:03:19;;;;;;;2.47;0.95;;;4.50;99.90;;;;;;5109623;28;20148;-65
2024/02/25 01:05:44;;;;;;;3.58;1.08;;;4.50;99.90;;;;;;5108533;28;20043;-64
2024/02/25 01:08:10;;;;;;;1.27;0.85;;;4.50;99.90;;;;;;5109152;28;20024;-64
2024/02/25 01:10:35;;;;;;;2.53;1.02;;;4.50;99.90;;;;;;5108437;27;20122;-64
2024/02/25 01:13:02;;;;;;;5.22;1.20;;;4.50;99.90;;;;;;5107636;28;20062;-64
2024/02/25 01:15:27;;;;;;;1.50;1.00;;;4.50;99.90;;;;;;5108531;28;20007;-64
2024/02/25 01:17:53;;;;;;;6.32;1.85;;;4.50;99.90;;;;;;5107779;28;20408;-64
2024/02/25 01:20:18;;;;;;;3.20;1.45;;;4.50;99.90;;;;;;5107916;28;20024;-64
2024/02/25 01:22:44;;;;;;;2.47;1.10;;;4.50;99.90;;;;;;5108659;28;20024;-64
2024/02/25 01:25:11;;;;;;;1.80;1.27;;;4.50;99.90;;;;;;5108240;27;20016;-64
2024/02/25 01:27:36;;;;;;;5.13;1.00;;;4.50;99.90;;;;;;5108591;28;20149;-64
2024/02/25 01:30:03;;;;;;;4.20;1.05;;;4.50;99.90;;;;;;5108539;28;20102;-64
2024/02/25 01:32:29;;;;;;;1.95;0.93;;;4.50;99.90;;;;;;5109146;28;20032;-64
2024/02/25 01:34:55;;;;;;;1.75;1.45;;;4.50;99.90;;;;;;5106360;28;20133;-64
2024/02/25 01:37:20;;;;;;;4.32;1.10;;;4.50;99.90;;;;;;5108380;28;20016;-63
2024/02/25 01:39:46;;;;;;;2.25;1.10;;;4.60;99.90;;;;;;5108616;28;20085;-63
2024/02/25 01:42:11;;;;;;;2.03;1.17;;;4.50;99.90;;;;;;5108321;28;20027;-61
2024/02/25 01:44:53;;;;;;;2.08;1.30;;;4.60;99.90;;;;;;5107291;28;20072;-64
2024/02/25 01:47:19;;;;;;;1.60;0.98;;;4.60;99.90;;;;;;5106676;28;20042;-64
2024/02/25 01:49:44;;;;;;;2.65;1.00;;;4.60;99.90;;;;;;5109645;28;20028;-64
2024/02/25 01:52:10;;;;;;;2.75;1.20;;;4.60;99.90;;;;;;5107067;28;20437;-61
2024/02/25 01:54:36;;;;;;;1.38;1.10;;;4.60;99.90;;;;;;5108194;28;20024;-62
2024/02/25 01:57:02;;;;;;;2.90;1.20;;;4.60;99.90;;;;;;5107060;28;20073;-62
2024/02/25 01:59:28;;;;;;;2.13;0.90;;;4.60;99.90;;;;;;5106802;28;20055;-63
2024/02/25 02:01:54;;;;;;;3.63;1.30;;;4.60;99.90;;;;;;5107712;28;20030;-64
2024/02/25 02:04:20;;;;;;;2.50;1.00;;;4.60;99.90;;;;;;5107806;28;20541;-64
2024/02/25 02:06:45;;;;;;;1.58;1.05;;;4.60;99.90;;;;;;5106974;28;20031;-64
2024/02/25 02:09:11;;;;;;;0.80;0.80;;;4.50;99.90;;;;;;5107255;28;20079;-64
2024/02/25 02:11:36;;;;;;;2.03;0.85;;;4.60;99.90;;;;;;5106207;28;20047;-64
2024/02/25 02:14:02;;;;;;;2.05;1.00;;;4.50;99.90;;;;;;5107378;28;20078;-64
2024/02/25 02:16:27;;;;;;;3.67;1.10;;;4.60;99.90;;;;;;5107295;28;20020;-64
2024/02/25 02:18:53;;;;;;;4.43;0.90;;;4.50;99.90;;;;;;5107342;28;20028;-65
2024/02/25 02:21:18;;;;;;;1.67;1.00;;;4.50;99.90;;;;;;5107567;28;20028;-64
2024/02/25 02:23:47;;;;;;;1.17;0.93;;;4.50;99.90;;;;;;5108236;28;20582;-64
2024/02/25 02:26:12;;;;;;;1.20;1.00;;;4.50;99.90;;;;;;5106087;28;20060;-64
2024/02/25 02:28:38;;;;;;;3.85;1.00;;;4.50;99.90;;;;;;5106318;28;20526;-64
2024/02/25 02:31:04;;;;;;;2.05;1.23;;;4.50;99.90;;;;;;5107230;28;20415;-64
2024/02/25 02:33:29;;;;;;;1.02;0.93;;;4.50;99.90;;;;;;5107966;28;20341;-64
2024/02/25 02:35:55;;;;;;;2.03;1.00;;;4.50;99.90;;;;;;5106302;28;20112;-64
2024/02/25 02:38:21;;;;;;;1.48;1.13;;;4.50;99.90;;;;;;5108003;28;20114;-64
2024/02/25 02:40:46;;;;;;;1.00;0.90;;;4.50;99.90;;;;;;5108455;28;20042;-64
2024/02/25 02:43:12;;;;;;;1.70;1.05;;;4.50;99.90;;;;;;5107956;28;20072;-64
2024/02/25 02:45:39;;;;;;;1.45;1.00;;;4.50;99.90;;;;;;5107071;28;20109;-64
2024/02/25 02:48:07;;;;;;;1.65;0.90;;;4.50;99.90;;;;;;5109228;28;20027;-64
2024/02/25 02:50:33;;;;;;;8.07;1.35;;;4.50;99.90;;;;;;5109715;28;20045;-64
2024/02/25 02:52:59;;;;;;;1.10;1.00;;;4.50;99.90;;;;;;5111037;28;20051;-64
2024/02/25 02:55:24;;;;;;;2.65;1.20;;;4.50;99.90;;;;;;5110944;28;20039;-64
2024/02/25 02:57:50;;;;;;;3.08;1.13;;;4.50;99.90;;;;;;5111407;28;20030;-64
2024/02/25 03:00:16;;;;;;;1.25;0.82;;;4.50;99.90;;;;;;5109916;28;20152;-64
2024/02/25 03:02:41;;;;;;;2.15;1.20;;;4.50;99.90;;;;;;5110783;28;20299;-64
2024/02/25 03:05:07;;;;;;;1.52;0.98;;;4.50;99.90;;;;;;5110775;28;20512;-64
2024/02/25 03:07:33;;;;;;;2.58;1.00;;;4.50;99.90;;;;;;5111890;28;20092;-64
2024/02/25 03:09:58;;;;;;;1.98;1.00;;;4.50;99.90;;;;;;5111243;28;20442;-64
2024/02/25 03:12:24;;;;;;;3.72;1.02;;;4.60;99.90;;;;;;5111794;28;20651;-64
2024/02/25 03:14:49;;;;;;;3.55;1.40;;;4.60;99.90;;;;;;5111322;28;20093;-64
2024/02/25 03:17:15;;;;;;;2.60;1.00;;;4.60;99.90;;;;;;5111181;28;20016;-64
2024/02/25 03:19:41;;;;;;;1.05;0.98;;;4.60;99.90;;;;;;5110107;28;20096;-64
2024/02/25 03:22:09;;;;;;;1.75;1.08;;;4.60;99.90;;;;;;5112034;28;20107;-64
2024/02/25 03:24:36;;;;;;;2.78;1.38;;;4.50;99.90;;;;;;5110234;28;20022;-64
2024/02/25 03:27:02;;;;;;;3.67;1.05;;;4.50;99.90;;;;;;5108656;28;20035;-64
2024/02/25 03:29:28;;;;;;;4.05;1.15;;;4.50;99.90;;;;;;5109718;28;20016;-64
2024/02/25 03:31:53;;;;;;;2.30;1.00;;;4.50;99.90;;;;;;5110116;28;20016;-64
2024/02/25 03:34:19;;;;;;;1.05;0.85;;;4.50;99.90;;;;;;5109559;28;20080;-64
2024/02/25 03:36:44;;;;;;;2.45;1.00;;;4.60;99.90;;;;;;5110477;28;20056;-64
2024/02/25 03:39:10;;;;;;;1.88;1.13;;;4.60;99.90;;;;;;5110827;28;20060;-64
2024/02/25 03:41:36;;;;;;;3.55;1.52;;;4.60;99.90;;;;;;5108153;28;20284;-64
2024/02/25 03:44:01;;;;;;;2.25;1.20;;;4.60;99.90;;;;;;5109025;28;20050;-64
2024/02/25 03:46:27;;;;;;;1.05;0.85;;;4.70;99.90;;;;;;5109933;28;20406;-64
2024/02/25 03:48:52;;;;;;;3.85;1.10;;;4.70;99.90;;;;;;5102441;28;20065;-64
2024/02/25 03:51:18;;;;;;;4.25;1.10;;;4.70;99.90;;;;;;5109991;28;20046;-64
2024/02/25 03:53:46;;;;;;;6.18;1.60;;;4.70;99.90;;;;;;5110510;28;20023;-64
2024/02/25 03:56:11;;;;;;;2.38;1.42;;;4.80;99.90;;;;;;5110026;28;20028;-64
2024/02/25 03:58:37;;;;;;;2.08;1.02;;;4.80;99.90;;;;;;5108452;28;20023;-64
2024/02/25 04:01:04;;;;;;;2.67;1.23;;;4.80;99.90;;;;;;5110384;28;20027;-64
2024/02/25 04:03:29;;;;;;;3.03;1.20;;;4.80;99.90;;;;;;5110457;28;20027;-64
2024/02/25 04:05:55;;;;;;;5.68;1.60;;;4.90;99.90;;;;;;5108368;28;20233;-64
2024/02/25 04:08:21;;;;;;;2.83;1.58;;;4.90;99.90;;;;;;5109644;28;20051;-64
2024/02/25 04:10:46;;;;;;;2.80;1.77;;;4.90;99.90;;;;;;5109772;28;20020;-64
2024/02/25 04:13:12;;;;;;;4.53;1.35;;;4.90;99.90;;;;;;5108351;27;20159;-64
2024/02/25 04:15:38;;;;;;;3.60;1.30;;;4.90;99.90;;;;;;5109460;28;20084;-64
2024/02/25 04:18:05;;;;;;;2.40;1.48;;;5.00;99.90;;;;;;5109940;28;20072;-64
2024/02/25 04:20:30;;;;;;;2.17;1.52;;;5.00;99.90;;;;;;5110046;28;20028;-65
2024/02/25 04:22:56;;;;;;;4.68;1.65;;;5.00;99.90;;;;;;5109659;28;20388;-64
2024/02/25 04:25:21;;;;;;;3.22;1.58;;;5.00;99.90;;;;;;5108222;28;20019;-64
2024/02/25 04:27:47;;;;;;;4.32;1.23;;;5.00;99.90;;;;;;5108823;28;20028;-64
2024/02/25 04:30:13;;;;;;;2.60;1.60;;;5.00;99.90;;;;;;5109478;28;20024;-64
2024/02/25 04:32:46;;;;;;;4.05;1.42;;;5.00;99.90;;;;;;5109412;28;20020;-64
2024/02/25 04:35:12;;;;;;;4.13;1.10;;;5.00;99.90;;;;;;5107493;28;20340;-64
2024/02/25 04:37:37;;;;;;;2.72;1.83;;;5.00;99.90;;;;;;5109875;28;20023;-65
2024/02/25 04:40:03;;;;;;;3.67;1.80;;;5.00;99.90;;;;;;5109503;28;20069;-65
2024/02/25 04:42:28;;;;;;;4.03;1.95;;;5.00;99.90;;;;;;5109235;28;20023;-64
2024/02/25 04:44:54;;;;;;;3.28;1.88;;;5.10;99.90;;;;;;5108980;28;20035;-64
2024/02/25 04:47:19;;;;;;;3.00;1.77;;;5.10;99.90;;;;;;5108650;28;20039;-64
2024/02/25 04:49:47;;;;;;;5.88;1.77;;;5.10;99.90;;;;;;5107970;28;20484;-65
2024/02/25 04:52:13;;;;;;;4.57;2.20;;;5.00;99.90;;;;;;5109236;28;20473;-65
2024/02/25 04:54:38;;;;;;;5.68;2.17;;;5.00;99.90;;;;;;5109449;28;20024;-65
2024/02/25 04:57:04;;;;;;;3.45;1.60;;;5.10;99.90;;;;;;5108589;28;20472;-65
2024/02/25 04:59:30;;;;;;;2.38;1.50;;;5.10;99.90;;;;;;5109560;28;20086;-65
2024/02/25 05:01:55;;;;;;;4.78;1.90;;;5.10;99.90;;;;;;5109396;28;20062;-65
2024/02/25 05:04:21;;;;;;;3.47;1.65;;;5.10;99.90;;;;;;5109030;28;20046;-65
2024/02/25 05:06:46;;;;;;;3.08;1.80;;;5.10;99.90;;;;;;5108861;28;20023;-65
2024/02/25 05:09:12;;;;;;;6.82;1.70;;;5.10;99.90;;;;;;5108385;27;20031;-65
2024/02/25 05:11:37;;;;;;;6.35;1.70;;;5.10;99.90;;;;;;5109118;28;20073;-65
2024/02/25 05:14:03;;;;;;;4.85;1.50;;;5.10;99.90;;;;;;5109047;27;20020;-65
2024/02/25 05:16:31;;;;;;;2.50;1.48;;;5.10;99.90;;;;;;5108721;27;20068;-65
2024/02/25 05:18:57;;;;;;;4.75;1.50;;;5.00;99.90;;;;;;5108485;28;20030;-65
2024/02/25 05:21:23;;;;;;;3.15;1.50;;;5.10;99.90;;;;;;5108528;28;20098;-65
2024/02/25 05:23:48;;;;;;;2.72;1.40;;;5.00;99.90;;;;;;5108717;28;20080;-65
2024/02/25 05:26:14;;;;;;;3.33;1.83;;;5.00;99.90;;;;;;5108207;28;20096;-65
2024/02/25 05:28:39;;;;;;;4.00;1.98;;;5.00;99.90;;;;;;5108715;28;20019;-65
2024/02/25 05:31:05;;;;;;;3.72;1.55;;;5.00;99.90;;;;;;5108666;28;20028;-65
2024/02/25 05:33:30;;;;;;;3.83;1.40;;;4.90;99.90;;;;;;5108515;28;20057;-65
2024/02/25 05:35:56;;;;;;;1.58;1.10;;;4.90;99.90;;;;;;5107176;28;20016;-65
2024/02/25 05:38:21;;;;;;;6.70;1.65;;;4.90;99.90;;;;;;5108809;28;20028;-65
2024/02/25 05:40:47;;;;;;;2.03;1.33;;;4.90;99.90;;;;;;5107261;28;20038;-65
2024/02/25 05:43:12;;;;;;;2.67;1.30;;;4.80;99.90;;;;;;5108422;28;20023;-65
2024/02/25 05:45:39;;;;;;;1.58;1.05;;;4.80;99.90;;;;;;5108187;28;20019;-65
2024/02/25 05:48:05;;;;;;;2.95;1.45;;;4.80;99.90;;;;;;5108123;28;20097;-65
2024/02/25 05:50:31;;;;;;;4.22;1.73;;;4.80;99.90;;;;;;5114840;27;20031;-65
2024/02/25 05:52:56;;;;;;;2.25;1.10;;;4.70;99.90;;;;;;5108529;28;20024;-65
2024/02/25 05:55:22;;;;;;;3.15;1.60;;;4.70;99.90;;;;;;5106205;28;20039;-65
2024/02/25 05:57:47;;;;;;;2.83;1.58;;;4.70;99.90;;;;;;5107060;28;20016;-65
2024/02/25 06:00:13;;;;;;;3.42;1.40;;;4.70;99.90;;;;;;5106557;28;20031;-65
2024/02/25 06:02:40;;;;;;;2.47;1.45;;;4.70;99.90;;;;;;5107924;28;20572;-65
2024/02/25 06:05:09;;;;;;;1.60;1.23;;;4.60;99.90;;;;;;5106490;28;20050;-65
2024/02/25 06:07:34;;;;;;;3.80;1.33;;;4.60;99.90;;;;;;5108411;28;20030;-65
2024/02/25 06:10:00;;;;;;;1.95;1.52;;;4.60;99.90;;;;;;5106549;28;20484;-65
2024/02/25 06:12:25;;;;;;;3.70;1.55;;;4.60;99.90;;;;;;5108150;28;20019;-65
2024/02/25 06:14:51;;;;;;;2.17;1.55;;;4.60;99.90;;;;;;5106599;28;20038;-65
2024/02/25 06:17:16;;;;;;;3.78;1.33;;;4.60;99.90;;;;;;5107755;28;20036;-65
2024/02/25 06:19:42;;;;;;;4.72;1.50;;;4.60;99.90;;;;;;5108410;28;20394;-65
2024/02/25 06:22:07;;;;;;;3.65;1.52;;;4.60;99.90;;;;;;5111097;28;20091;-65
2024/02/25 06:24:33;;;;;;;3.42;1.65;;;4.60;99.90;;;;;;5111996;28;20031;-65
2024/02/25 06:26:58;;;;;;;1.80;1.42;;;4.60;99.90;;;;;;5111499;28;20125;-65
2024/02/25 06:29:24;;;;;;;2.70;1.75;;;4.60;99.90;;;;;;5110673;28;20028;-63
2024/02/25 06:31:50;;;;;;;3.30;1.75;;;4.60;99.90;;;;;;5111934;28;20160;-63
2024/02/25 06:34:15;;;;;;;2.65;1.30;;;4.60;99.90;;;;;;5111985;28;20024;-63
2024/02/25 06:36:41;;;;;;;1.50;1.40;;;4.70;99.90;;;;;;5111677;28;20417;-63
2024/02/25 06:39:08;;;;;;;1.65;1.40;;;4.70;99.90;;;;;;5111431;28;20031;-63
2024/02/25 06:41:34;;;;;;;2.67;1.40;;;4.70;99.90;;;;;;5111719;28;20023;-63
2024/02/25 06:43:59;;;;;;;2.83;1.60;;;4.70;99.90;;;;;;5110502;28;20404;-63
2024/02/25 06:46:25;;;;;;;3.17;1.88;;;4.80;99.90;;;;;;5110938;28;20508;-63
2024/02/25 06:48:51;;;;;;;3.78;1.48;;;4.80;99.90;;;;;;5112388;28;20020;-64
2024/02/25 06:51:26;;;;;;;2.80;1.70;;;4.80;99.90;;;;;;5112682;28;20113;-64
2024/02/25 06:53:55;;;;;;;2.30;1.70;;;4.80;99.90;;;;;;5112849;28;20020;-65
2024/02/25 06:56:21;;;;;;;2.50;1.40;;;4.80;99.90;;;;;;5112351;27;20383;-64
2024/02/25 06:58:47;;;;;;;4.75;1.60;;;4.80;99.90;;;;;;5112649;28;20110;-65
2024/02/25 07:01:13;;;;;;;2.17;1.55;;;4.80;99.90;;;;;;5113121;28;20023;-64
2024/02/25 07:03:43;;;;;;;2.63;1.75;;;4.80;99.90;;;;;;5111713;28;20020;-65
2024/02/25 07:06:10;;;;;;;3.50;1.83;;;4.80;99.90;;;;;;5111180;28;20727;-65
2024/02/25 07:08:35;;;;;;;3.55;1.70;;;4.80;99.90;;;;;;5111482;28;20023;-65
2024/02/25 07:11:01;;;;;;;3.33;1.80;;;4.80;99.90;;;;;;5111493;28;20053;-65
2024/02/25 07:13:26;;;;;;;2.70;1.50;;;4.90;99.90;;;;;;5112718;28;20028;-65
2024/02/25 07:15:52;;;;;;;1.98;1.58;;;4.90;99.90;;;;;;5112624;28;20019;-65
2024/02/25 07:18:17;;;;;;;3.22;1.80;;;4.90;99.90;;;;;;5112572;28;20199;-65
2024/02/25 07:20:43;;;;;;;3.08;1.30;;;4.90;99.90;;;;;;5112234;28;20034;-65
2024/02/25 07:23:08;;;;;;;5.07;1.73;;;4.90;99.90;;;;;;5110056;28;20425;-65
2024/02/25 07:25:34;;;;;;;2.30;1.42;;;4.90;99.90;;;;;;5110778;28;20023;-65
2024/02/25 07:28:00;;;;;;;2.33;1.60;;;4.90;99.90;;;;;;5110920;28;20027;-65
2024/02/25 07:30:25;;;;;;;1.73;1.60;;;4.90;99.90;;;;;;5111016;28;20077;-65
2024/02/25 07:32:51;;;;;;;2.72;1.75;;;4.90;99.90;;;;;;5110031;28;20024;-65
2024/02/25 07:35:16;;;;;;;2.42;1.45;;;4.90;99.90;;;;;;5110330;28;20020;-65
2024/02/25 07:37:42;;;;;;;2.83;1.70;;;4.90;99.90;;;;;;5111024;28;20031;-65
2024/02/25 07:40:09;;;;;;;2.55;1.58;;;4.90;99.90;;;;;;5109265;28;20027;-65
2024/02/25 07:42:35;;;;;;;2.58;1.60;;;4.90;99.90;;;;;;5118357;27;20097;-65
2024/02/25 07:45:00;;;;;;;2.53;1.52;;;4.90;99.90;;;;;;5110336;28;20062;-66
2024/02/25 07:47:26;;;;;;;2.38;1.67;;;4.90;99.90;;;;;;5109396;28;20088;-65
2024/02/25 07:49:51;;;;;;;2.40;1.30;;;4.90;99.90;;;;;;5110517;28;20016;-65
2024/02/25 07:52:16;;;;;;;4.90;1.40;;;5.00;99.90;;;;;;5109975;28;20020;-65
2024/02/25 07:54:42;;;;;;;3.20;1.65;;;5.00;99.90;;;;;;5110192;28;20051;-65
2024/02/25 07:57:08;;;;;;;2.30;1.63;;;5.00;99.90;;;;;;5109978;27;20038;-65
2024/02/25 07:59:34;;;;;;;1.85;1.35;;;5.00;99.90;;;;;;5108761;28;20106;-66
2024/02/25 08:01:59;;;;;;;3.08;1.80;;;5.00;99.90;;;;;;5108927;28;20158;-65
2024/02/25 08:04:25;;;;;;;3.13;1.90;;;5.10;99.90;;;;;;5110147;28;20413;-63
2024/02/25 08:06:50;;;;;;;2.67;1.85;;;5.00;99.90;;;;;;5109745;28;20030;-64
2024/02/25 08:09:16;;;;;;;4.10;1.92;;;5.10;99.90;;;;;;5109572;28;20057;-64
2024/02/25 08:11:41;;;;;;;2.53;1.65;;;5.10;99.90;;;;;;5109916;28;20019;-64
2024/02/25 08:14:07;;;;;;;2.20;1.50;;;5.20;99.90;;;;;;5108552;28;20103;-65
2024/02/25 08:16:35;;;;;;;4.60;1.45;;;5.20;99.90;;;;;;5108897;28;20050;-64
2024/02/25 08:19:01;;;;;;;2.70;1.27;;;5.30;99.90;;;;;;5110008;28;20062;-64
2024/02/25 08:21:27;;;;;;;1.65;1.30;;;5.30;99.90;;;;;;5109555;28;20019;-65
2024/02/25 08:23:52;;;;;;;3.60;1.50;;;5.40;99.90;;;;;;5109574;28;20016;-64
2024/02/25 08:26:18;;;;;;;3.88;1.42;;;5.40;99.90;;;;;;5108969;28;20077;-65
2024/02/25 08:28:43;;;;;;;1.55;1.02;;;5.50;99.90;;;;;;5108005;28;20118;-65
2024/02/25 08:31:09;;;;;;;1.85;1.40;;;5.60;99.90;;;;;;5109686;28;20529;-64
2024/02/25 08:33:35;;;;;;;1.92;1.33;;;5.70;99.90;;;;;;5109137;28;20073;-64
2024/02/25 08:36:01;;;;;;;2.55;1.25;;;5.70;99.90;;;;;;5108806;28;20087;-65
2024/02/25 08:38:26;;;;;;;1.40;1.30;;;5.70;99.90;;;;;;5108069;28;20028;-64
2024/02/25 08:40:52;;;;;;;2.72;1.30;;;5.80;99.90;;;;;;5109218;28;20016;-65
2024/02/25 08:43:17;;;;;;;1.50;1.10;;;5.90;99.90;;;;;;5108803;28;20038;-65
2024/02/25 08:45:43;;;;;;;2.70;1.50;;;6.00;99.90;;;;;;5109073;28;20311;-64
2024/02/25 08:48:08;;;;;;;2.00;1.30;;;6.00;99.90;;;;;;5107551;28;20080;-65
2024/02/25 08:50:34;;;;;;;2.17;1.15;;;6.10;99.90;;;;;;5109056;28;20145;-65
2024/02/25 08:52:59;;;;;;;6.43;1.50;;;6.20;99.90;;;;;;5108909;28;20390;-64
2024/02/25 08:55:25;;;;;;;2.17;1.30;;;6.30;99.90;;;;;;5107346;28;20019;-65
2024/02/25 08:57:50;;;;;;;2.65;1.48;;;6.30;99.90;;;;;;5109073;28;20473;-65
2024/02/25 09:00:16;;;;;;;1.75;1.30;;;6.40;99.90;;;;;;5107452;28;20012;-65
2024/02/25 09:02:42;;;;;;;1.65;1.50;;;6.50;99.90;;;;;;5107546;28;20544;-64
2024/02/25 09:05:08;;;;;;;4.20;1.60;;;6.60;99.90;;;;;;5107306;28;20106;-65
2024/02/25 09:07:36;;;;;;;1.50;1.15;;;6.70;99.90;;;;;;5108059;27;20051;-65
2024/02/25 09:10:04;;;;;;;1.90;1.35;;;6.70;99.90;;;;;;5108753;28;20015;-65
2024/02/25 09:12:30;;;;;;;2.65;1.40;;;6.80;99.90;;;;;;5107030;28;20043;-65
2024/02/25 09:14:56;;;;;;;1.10;1.00;;;6.90;99.90;;;;;;5108427;28;20628;-64
2024/02/25 09:17:21;;;;;;;1.33;1.05;;;7.00;99.90;;;;;;5108132;28;20019;-65
2024/02/25 09:19:47;;;;;;;1.23;0.90;;;7.00;99.90;;;;;;5108530;28;20469;-65
2024/02/25 09:22:12;;;;;;;2.08;1.10;;;7.10;99.90;;;;;;5107065;28;20035;-64
2024/02/25 09:24:38;;;;;;;3.58;1.08;;;7.20;99.90;;;;;;5108281;28;20100;-64
2024/02/25 09:27:04;;;;;;;4.47;1.10;;;7.30;99.90;;;;;;5105939;28;20035;-64
2024/02/25 09:29:29;;;;;;;2.13;1.08;;;7.30;99.90;;;;;;5105925;28;20472;-64
2024/02/25 09:31:55;;;;;;;1.95;1.13;;;7.40;99.90;;;;;;5110670;27;20094;-64
2024/02/25 09:34:21;;;;;;;2.22;1.10;;;7.40;99.90;;;;;;5109677;27;20102;-64
2024/02/25 09:36:47;;;;;;;2.28;1.30;;;7.40;99.90;;;;;;5107898;28;20587;-64
2024/02/25 09:39:12;;;;;;;0.93;0.82;;;7.40;99.90;;;;;;5107874;28;20098;-64
2024/02/25 09:41:41;;;;;;;2.63;1.00;;;7.40;99.90;;;;;;5106618;28;20024;-65
2024/02/25 09:44:21;;;;;;;1.52;0.95;;;7.40;99.90;;;;;;5108040;28;20045;-64
2024/02/25 09:46:46;;;;;;;1.73;0.97;;;7.40;99.90;;;;;;5098173;28;20039;-64
2024/02/25 09:49:14;;;;;;;2.05;0.90;;;7.40;99.90;;;;;;5108021;28;20019;-65
2024/02/25 09:51:41;;;;;;;1.60;1.10;;;7.40;99.90;;;;;;5107991;28;20300;-64
2024/02/25 09:54:07;;;;;;;0.95;0.80;;;7.50;99.90;;;;;;5107434;28;20015;-64
2024/02/25 09:56:33;;;;;;;1.50;0.80;;;7.50;99.90;;;;;;5105906;28;20020;-64
2024/02/25 09:58:58;;;;;;;3.75;1.20;;;7.50;99.90;;;;;;5107867;28;20540;-64
2024/02/25 10:01:25;;;;;;;1.73;1.00;;;7.50;99.90;;;;;;5107820;28;20028;-64
2024/02/25 10:03:51;;;;;;;1.92;0.82;;;7.60;99.90;;;;;;5109473;28;20465;-65
2024/02/25 10:06:17;;;;;;;2.58;1.20;;;7.60;99.90;;;;;;5108776;28;20114;-65
2024/02/25 10:08:51;;;;;;;2.03;0.90;;;7.60;99.90;;;;;;5107873;28;20168;-65
2024/02/25 10:11:17;;;;;;;2.15;1.25;;;7.60;99.90;;;;;;5108327;28;20024;-65
2024/02/25 10:13:45;;;;;;;2.05;1.08;;;7.70;99.90;;;;;;5108107;28;20510;-64
2024/02/25 10:16:16;;;;;;;3.63;1.52;;;7.70;99.90;;;;;;5106125;28;20540;-65
2024/02/25 10:18:47;;;;;;;1.02;0.90;;;7.70;99.90;;;;;;5085187;28;20077;-64
2024/02/25 10:21:13;;;;;;;1.98;1.08;;;7.70;99.90;;;;;;5087350;28;20426;-66
2024/02/25 10:23:39;;;;;;;1.85;1.20;;;7.70;99.90;;;;;;5087056;28;20118;-67
2024/02/25 10:26:14;;;;;;;1.70;1.00;;;7.70;99.90;;;;;;5085688;28;20115;-67
2024/02/25 10:28:44;;;;;;;2.47;1.25;;;7.80;99.90;;;;;;5085354;28;20035;-67
2024/02/25 10:31:12;;;;;;;1.45;0.80;;;7.80;99.90;;;;;;5087024;28;20054;-67
2024/02/25 10:33:38;;;;;;;3.03;0.95;;;7.80;99.90;;;;;;5087145;28;20024;-67
2024/02/25 10:36:13;;;;;;;1.65;1.10;;;7.80;99.90;;;;;;5101184;28;20366;-67
2024/02/25 10:38:41;;;;;;;2.15;1.27;;;7.80;99.90;;;;;;5107371;28;20161;-68
2024/02/25 10:41:08;;;;;;;1.48;1.10;;;7.80;99.90;;;;;;5107574;28;20097;-67
2024/02/25 10:43:35;;;;;;;1.42;1.25;;;7.90;99.90;;;;;;5107284;28;20115;-67
2024/02/25 10:46:28;;;;;;;1.30;1.00;;;7.90;99.90;;;;;;5106924;28;20173;-67
2024/02/25 10:48:56;;;;;;;2.53;0.90;;;7.90;99.90;;;;;;5099100;28;20028;-67
2024/02/25 10:51:24;;;;;;;2.20;1.17;;;7.90;99.90;;;;;;5107401;28;20012;-67
2024/02/25 10:53:50;;;;;;;2.20;0.93;;;7.90;99.90;;;;;;5107477;28;20066;-67
2024/02/25 10:56:18;;;;;;;1.70;1.10;;;7.90;99.90;;;;;;5106015;28;20051;-67
2024/02/25 10:58:46;;;;;;;1.23;0.85;;;8.00;99.90;;;;;;5105905;28;20057;-67
2024/02/25 11:01:12;;;;;;;5.55;1.10;;;8.00;99.90;;;;;;5107480;28;20019;-67
2024/02/25 11:03:39;;;;;;;1.55;0.95;;;8.00;99.90;;;;;;5107771;28;20038;-68
2024/02/25 11:06:09;;;;;;;2.47;0.90;;;8.10;99.90;;;;;;5107522;28;20023;-67
2024/02/25 11:08:36;;;;;;;1.42;1.10;;;8.10;99.90;;;;;;5109177;28;20039;-68
2024/02/25 11:11:09;;;;;;;2.97;1.10;;;8.10;99.90;;;;;;5109327;28;20019;-68
2024/02/25 11:13:40;;;;;;;3.65;1.00;;;8.00;99.90;;;;;;5111562;28;20110;-68
2024/02/25 11:16:06;;;;;;;1.73;1.10;;;8.00;99.90;;;;;;5109507;28;20254;-68
2024/02/25 11:18:32;;;;;;;3.75;1.35;;;8.10;99.90;;;;;;5110667;28;20153;-67
2024/02/25 11:21:07;;;;;;;2.33;1.45;;;8.10;99.90;;;;;;5109741;28;20099;-68
2024/02/25 11:23:44;;;;;;;2.70;1.00;;;8.20;99.90;;;;;;5110837;28;20028;-68
2024/02/25 11:26:33;;;;;;;3.05;1.20;;;8.20;99.90;;;;;;5109411;27;20019;-67
2024/02/25 11:29:19;;;;;;;1.58;1.27;;;8.20;99.90;;;;;;5096780;28;20036;-67
2024/02/25 11:31:49;;;;;;;1.27;1.00;;;8.30;99.90;;;;;;5110713;28;20027;-67
2024/02/25 11:34:18;;;;;;;2.30;1.27;;;8.40;99.90;;;;;;5110272;28;20020;-66
2024/02/25 11:36:49;;;;;;;1.50;0.97;;;8.50;99.90;;;;;;5109951;28;20055;-67
2024/02/25 11:39:15;;;;;;;1.45;0.90;;;8.80;99.90;;;;;;5108120;28;20034;-67
2024/02/25 11:41:43;;;;;;;2.90;0.95;;;9.00;99.90;;;;;;5108995;28;20028;-66
2024/02/25 11:44:09;;;;;;;2.08;1.33;;;9.30;99.90;;;;;;5110385;28;20100;-67
2024/02/25 11:46:35;;;;;;;1.45;1.20;;;10.20;99.90;;;;;;5110067;28;20451;-67
2024/02/25 11:49:01;;;;;;;2.80;0.98;;;10.40;99.90;;;;;;5110564;28;20102;-67
2024/02/25 11:51:26;;;;;;;2.33;1.20;;;11.00;99.90;;;;;;5109098;28;20149;-67
2024/02/25 11:53:52;;;;;;;1.60;0.80;;;12.20;98.60;;;;;;5108697;28;20047;-67
2024/02/25 11:56:18;;;;;;;3.33;1.33;;;13.80;94.80;;;;;;5108177;28;20016;-67
2024/02/25 11:58:44;;;;;;;1.50;0.90;;;15.50;90.50;;;;;;5109979;28;20024;-67
2024/02/25 12:01:10;;;;;;;0.82;0.82;;;16.40;87.70;;;;;;5109871;28;20046;-68
2024/02/25 12:03:39;;;;;;;1.48;1.10;;;17.30;82.20;;;;;;5109989;28;20027;-68
2024/02/25 12:06:05;;;;;;;0.95;0.70;;;17.80;78.60;;;;;;5109706;28;20020;-67
2024/02/25 12:08:31;;;;;;;0.88;0.80;;;18.30;77.90;;;;;;5108785;28;20034;-67
2024/02/25 12:11:00;;;;;;;1.42;0.98;;;19.20;75.20;;;;;;5110516;28;20464;-68
2024/02/25 12:13:26;;;;;;;0.52;0.52;;;19.70;71.60;;;;;;5108507;28;20024;-68
2024/02/25 12:15:52;;;;;;;0.68;0.65;;;20.10;70.70;;;;;;5108402;28;20019;-68
2024/02/25 12:18:18;;;;;;;0.88;0.70;;;19.70;70.60;;;;;;5110149;27;20024;-67
2024/02/25 12:20:44;;;;;;;1.33;0.80;;;19.00;69.50;;;;;;5110958;27;20091;-67
2024/02/25 12:23:10;;;;;;;0.90;0.75;;;18.00;73.20;;;;;;5109476;28;20035;-67
2024/02/25 12:25:36;;;;;;;1.30;1.00;;;18.10;71.70;;;;;;5107551;28;20019;-67
2024/02/25 12:28:13;;;;;;;0.90;0.80;;;17.90;71.30;;;;;;5109839;28;20019;-67
2024/02/25 12:30:44;;;;;;;0.90;0.90;;;16.80;72.80;;;;;;5110437;27;20028;-67
2024/02/25 12:33:09;;;;;;;0.93;0.75;;;16.00;76.10;;;;;;5108976;28;20012;-68
2024/02/25 12:35:37;;;;;;;1.58;0.82;;;15.20;76.70;;;;;;5107629;28;20468;-68
2024/02/25 12:38:03;;;;;;;2.40;1.02;;;14.40;77.80;;;;;;5109061;28;20373;-68
2024/02/25 12:40:31;;;;;;;1.75;1.10;;;13.80;80.80;;;;;;5107431;28;20031;-67
2024/02/25 12:42:59;;;;;;;1.10;1.00;;;13.00;82.20;;;;;;5106197;28;20024;-67
2024/02/25 12:45:25;;;;;;;4.30;0.80;;;12.60;84.90;;;;;;5105678;28;20034;-68
2024/02/25 12:47:51;;;;;;;1.13;0.88;;;12.40;85.70;;;;;;5108919;28;20058;-67
2024/02/25 12:50:16;;;;;;;1.92;0.95;;;12.40;86.10;;;;;;5108218;28;20023;-68